createdAt,value
2018-08-09T00:00:10.303Z,19.40
2018-08-09T00:02:38.691Z,19.40
2018-08-09T00:05:07.126Z,19.40
2018-08-09T00:07:35.496Z,19.40
2018-08-09T00:10:05.111Z,19.30
2018-08-09T00:12:33.490Z,19.30
2018-08-09T00:15:01.838Z,19.30
2018-08-09T00:17:30.187Z,19.30
2018-08-09T00:19:58.510Z,19.30
2018-08-09T00:22:26.879Z,19.30
2018-08-09T00:24:55.231Z,19.30
2018-08-09T00:27:23.600Z,19.30
2018-08-09T00:29:51.922Z,19.30
2018-08-09T00:32:20.268Z,19.20
2018-08-09T00:34:48.743Z,19.10
2018-08-09T00:37:17.082Z,19.00
2018-08-09T00:39:45.411Z,18.90
2018-08-09T00:42:13.803Z,18.90
2018-08-09T00:44:42.360Z,18.90
2018-08-09T00:47:10.710Z,18.90
2018-08-09T00:49:39.044Z,18.90
2018-08-09T00:52:07.455Z,18.90
2018-08-09T00:54:35.779Z,18.90
2018-08-09T00:57:04.135Z,18.90
2018-08-09T00:59:32.451Z,18.90
2018-08-09T01:02:00.819Z,18.90
2018-08-09T01:04:29.151Z,18.80
2018-08-09T01:06:57.511Z,18.80
2018-08-09T01:09:25.835Z,18.80
2018-08-09T01:11:54.245Z,18.80
2018-08-09T01:14:22.579Z,18.80
2018-08-09T01:16:50.939Z,18.90
2018-08-09T01:19:19.271Z,18.90
2018-08-09T01:21:48.019Z,18.90
2018-08-09T01:24:16.394Z,18.90
2018-08-09T01:26:44.743Z,19.00
2018-08-09T01:29:13.100Z,19.00
2018-08-09T01:31:41.471Z,19.00
2018-08-09T01:34:10.754Z,19.00
2018-08-09T01:36:39.490Z,19.00
2018-08-09T01:39:09.607Z,19.00
2018-08-09T01:41:37.964Z,19.00
2018-08-09T01:44:07.855Z,19.10
2018-08-09T01:46:36.301Z,19.00
2018-08-09T01:49:04.706Z,19.10
2018-08-09T01:51:33.143Z,19.00
2018-08-09T01:54:01.552Z,19.00
2018-08-09T01:56:29.994Z,19.10
2018-08-09T01:58:58.448Z,19.10
2018-08-09T02:01:26.851Z,19.10
2018-08-09T02:03:55.283Z,19.10
2018-08-09T02:06:23.722Z,19.10
2018-08-09T02:08:52.143Z,19.10
2018-08-09T02:11:20.545Z,19.10
2018-08-09T02:13:48.958Z,19.10
2018-08-09T02:16:17.356Z,19.20
2018-08-09T02:18:45.787Z,19.20
2018-08-09T02:21:14.235Z,19.20
2018-08-09T02:23:42.702Z,19.20
2018-08-09T02:26:11.103Z,19.20
2018-08-09T02:28:39.532Z,19.20
2018-08-09T02:31:07.933Z,19.20
2018-08-09T02:33:36.361Z,19.20
2018-08-09T02:36:04.763Z,19.10
2018-08-09T02:38:33.183Z,19.20
2018-08-09T02:41:01.579Z,19.10
2018-08-09T02:43:30.036Z,19.00
2018-08-09T02:45:58.447Z,19.00
2018-08-09T02:48:26.880Z,19.00
2018-08-09T02:50:55.264Z,19.00
2018-08-09T02:53:23.679Z,19.00
2018-08-09T02:55:52.080Z,18.90
2018-08-09T02:58:20.496Z,19.00
2018-08-09T03:00:48.927Z,19.00
2018-08-09T03:03:17.383Z,19.00
2018-08-09T03:05:45.788Z,18.90
2018-08-09T03:08:14.235Z,18.90
2018-08-09T03:10:42.732Z,18.90
2018-08-09T03:13:11.167Z,18.90
2018-08-09T03:15:39.555Z,18.90
2018-08-09T03:18:07.994Z,18.90
2018-08-09T03:20:36.390Z,18.90
2018-08-09T03:23:04.823Z,18.90
2018-08-09T03:25:33.202Z,18.90
2018-08-09T03:28:01.611Z,19.00
2018-08-09T03:30:30.049Z,19.00
2018-08-09T03:32:58.458Z,19.00
2018-08-09T03:35:26.870Z,19.00
2018-08-09T03:37:55.418Z,19.00
2018-08-09T03:40:23.810Z,19.00
2018-08-09T03:42:52.211Z,19.10
2018-08-09T03:45:20.564Z,19.10
2018-08-09T03:47:48.973Z,19.10
2018-08-09T03:50:17.335Z,19.00
2018-08-09T03:52:45.946Z,19.10
2018-08-09T03:55:14.315Z,19.10
2018-08-09T03:57:42.684Z,19.10
2018-08-09T04:00:11.135Z,19.10
2018-08-09T04:02:39.851Z,19.10
2018-08-09T04:05:09.095Z,19.10
2018-08-09T04:07:37.468Z,19.20
2018-08-09T04:10:06.594Z,19.20
2018-08-09T04:12:34.959Z,19.30
2018-08-09T04:15:03.343Z,19.40
2018-08-09T04:17:31.679Z,19.40
2018-08-09T04:20:00.025Z,19.40
2018-08-09T04:22:28.367Z,19.40
2018-08-09T04:24:56.720Z,19.40
2018-08-09T04:27:25.066Z,19.40
2018-08-09T04:29:53.443Z,19.50
2018-08-09T04:32:21.775Z,19.50
2018-08-09T04:34:50.132Z,19.60
2018-08-09T04:37:18.487Z,19.60
2018-08-09T04:39:46.847Z,19.70
2018-08-09T04:42:15.174Z,19.70
2018-08-09T04:44:43.547Z,19.80
2018-08-09T04:47:11.895Z,19.80
2018-08-09T04:49:40.251Z,19.80
2018-08-09T04:52:09.623Z,19.80
2018-08-09T04:54:38.249Z,19.80
2018-08-09T04:57:08.075Z,19.70
2018-08-09T04:59:37.631Z,19.70
2018-08-09T05:02:07.567Z,19.70
2018-08-09T05:04:37.112Z,19.70
2018-08-09T05:07:07.608Z,19.70
2018-08-09T05:09:37.632Z,19.80
2018-08-09T05:12:06.651Z,19.80
2018-08-09T05:14:36.075Z,19.80
2018-08-09T05:17:06.727Z,19.80
2018-08-09T05:19:35.877Z,19.70
2018-08-09T05:22:05.918Z,19.70
2018-08-09T05:24:37.598Z,19.80
2018-08-09T05:27:07.893Z,19.80
2018-08-09T05:29:40.878Z,19.80
2018-08-09T05:32:09.227Z,19.80
2018-08-09T05:34:37.850Z,19.90
2018-08-09T05:37:06.171Z,20.00
2018-08-09T05:39:35.980Z,20.00
2018-08-09T05:42:04.351Z,20.00
2018-08-09T05:44:32.736Z,20.00
2018-08-09T05:47:01.336Z,20.00
2018-08-09T05:49:29.874Z,20.10
2018-08-09T05:51:58.628Z,20.10
2018-08-09T05:54:28.141Z,20.10
2018-08-09T05:56:57.665Z,20.20
2018-08-09T05:59:27.748Z,20.20
2018-08-09T06:01:57.990Z,20.20
2018-08-09T06:04:27.774Z,20.20
2018-08-09T06:06:56.218Z,20.30
2018-08-09T06:09:24.604Z,20.40
2018-08-09T06:11:53.835Z,20.40
2018-08-09T06:14:22.204Z,20.50
2018-08-09T06:19:25.168Z,20.70
2018-08-09T06:21:53.503Z,20.70
2018-08-09T06:24:22.070Z,20.70
2018-08-09T06:26:50.444Z,20.70
2018-08-09T06:29:18.829Z,20.70
2018-08-09T06:31:47.155Z,20.80
2018-08-09T06:34:15.503Z,20.80
2018-08-09T06:36:43.847Z,20.70
2018-08-09T06:39:12.231Z,20.70
2018-08-09T06:41:40.551Z,20.60
2018-08-09T06:44:09.167Z,20.60
2018-08-09T06:46:37.539Z,20.60
2018-08-09T06:49:05.887Z,20.70
2018-08-09T06:51:34.230Z,20.70
2018-08-09T06:54:02.555Z,20.70
2018-08-09T06:56:30.920Z,20.60
2018-08-09T06:58:59.248Z,20.60
2018-08-09T07:01:27.624Z,20.50
2018-08-09T07:03:55.992Z,20.50
2018-08-09T07:06:24.339Z,20.60
2018-08-09T07:08:52.671Z,20.80
2018-08-09T07:11:21.922Z,20.80
2018-08-09T07:13:50.252Z,20.90
2018-08-09T07:16:18.616Z,20.90
2018-08-09T07:18:46.954Z,21.00
2018-08-09T07:21:15.303Z,21.10
2018-08-09T07:23:43.635Z,21.40
2018-08-09T07:26:12.010Z,21.70
2018-08-09T07:28:40.367Z,21.70
2018-08-09T07:31:08.794Z,21.80
2018-08-09T07:33:37.227Z,21.80
2018-08-09T07:36:05.643Z,21.80
2018-08-09T07:38:34.178Z,21.80
2018-08-09T07:41:02.651Z,22.00
2018-08-09T07:43:31.011Z,22.20
2018-08-09T07:45:59.415Z,22.50
2018-08-09T07:48:27.805Z,22.80
2018-08-09T07:50:56.118Z,23.00
2018-08-09T07:53:24.463Z,23.20
2018-08-09T07:55:52.842Z,23.40
2018-08-09T07:58:21.235Z,23.60
2018-08-09T08:00:49.624Z,23.60
2018-08-09T08:03:18.019Z,23.50
2018-08-09T08:05:46.388Z,23.40
2018-08-09T08:08:14.821Z,23.30
2018-08-09T08:10:43.170Z,23.30
2018-08-09T08:13:11.497Z,23.30
2018-08-09T08:15:39.843Z,23.40
2018-08-09T08:18:08.216Z,23.50
2018-08-09T08:20:36.652Z,23.50
2018-08-09T08:23:05.023Z,23.70
2018-08-09T08:25:33.379Z,24.00
2018-08-09T08:28:01.717Z,24.30
2018-08-09T08:30:30.123Z,24.70
2018-08-09T08:32:58.461Z,25.00
2018-08-09T08:35:26.831Z,25.40
2018-08-09T08:37:55.191Z,25.60
2018-08-09T08:40:23.547Z,25.90
2018-08-09T08:42:51.895Z,26.10
2018-08-09T08:45:20.335Z,26.20
2018-08-09T08:47:48.764Z,26.60
2018-08-09T08:50:17.285Z,26.80
2018-08-09T08:52:45.721Z,27.10
2018-08-09T08:55:14.172Z,27.10
2018-08-09T08:57:42.676Z,27.10
2018-08-09T09:00:12.319Z,26.80
2018-08-09T09:02:40.978Z,26.60
2018-08-09T09:05:11.446Z,26.50
2018-08-09T09:07:40.062Z,26.40
2018-08-09T09:10:10.286Z,26.30
2018-08-09T09:12:38.774Z,26.20
2018-08-09T09:15:09.554Z,26.40
2018-08-09T09:17:38.055Z,26.50
2018-08-09T09:20:10.963Z,26.70
2018-08-09T09:22:39.582Z,26.70
2018-08-09T09:25:08.931Z,26.90
2018-08-09T09:27:37.427Z,27.10
2018-08-09T09:30:08.158Z,27.20
2018-08-09T09:32:36.587Z,27.30
2018-08-09T09:35:05.666Z,27.50
2018-08-09T09:37:34.825Z,27.80
2018-08-09T09:40:03.311Z,28.00
2018-08-09T09:42:31.746Z,28.10
2018-08-09T09:45:00.183Z,28.20
2018-08-09T09:47:28.595Z,28.40
2018-08-09T09:49:57.011Z,28.40
2018-08-09T09:52:25.444Z,28.30
2018-08-09T09:54:53.872Z,28.50
2018-08-09T09:57:22.332Z,28.50
2018-08-09T09:59:55.997Z,28.60
2018-08-09T10:02:25.707Z,28.90
2018-08-09T10:04:56.295Z,29.00
2018-08-09T10:07:24.730Z,29.20
2018-08-09T10:09:53.672Z,29.00
2018-08-09T10:12:22.236Z,29.10
2018-08-09T10:14:50.631Z,29.30
2018-08-09T10:17:19.128Z,29.50
2018-08-09T10:19:47.565Z,29.60
2018-08-09T10:22:16.043Z,29.60
2018-08-09T10:24:44.447Z,29.70
2018-08-09T10:27:12.951Z,29.80
2018-08-09T10:29:41.430Z,29.90
2018-08-09T10:32:09.843Z,30.00
2018-08-09T10:34:38.235Z,30.30
2018-08-09T10:37:07.166Z,30.30
2018-08-09T10:39:35.570Z,30.20
2018-08-09T10:42:04.010Z,30.00
2018-08-09T10:44:32.359Z,29.80
2018-08-09T10:47:00.707Z,29.80
2018-08-09T10:49:29.055Z,29.90
2018-08-09T10:51:57.463Z,29.80
2018-08-09T10:54:25.788Z,29.70
2018-08-09T10:56:54.335Z,29.70
2018-08-09T10:59:22.671Z,29.70
2018-08-09T11:01:51.161Z,29.60
2018-08-09T11:04:19.395Z,29.50
2018-08-09T11:06:48.167Z,29.50
2018-08-09T11:09:16.522Z,29.50
2018-08-09T11:11:44.862Z,29.40
2018-08-09T11:14:13.216Z,29.40
2018-08-09T11:16:41.559Z,29.50
2018-08-09T11:19:10.071Z,29.60
2018-08-09T11:21:38.483Z,29.70
2018-08-09T11:24:06.847Z,29.70
2018-08-09T11:26:35.270Z,29.80
2018-08-09T11:29:03.746Z,29.70
2018-08-09T11:31:32.099Z,29.80
2018-08-09T11:34:00.625Z,30.00
2018-08-09T11:36:28.923Z,30.30
2018-08-09T11:38:57.288Z,30.40
2018-08-09T11:41:25.898Z,30.30
2018-08-09T11:43:54.440Z,30.30
2018-08-09T11:46:22.887Z,30.50
2018-08-09T11:48:51.299Z,30.80
2018-08-09T11:51:19.695Z,31.00
2018-08-09T11:53:48.141Z,30.90
2018-08-09T11:56:16.668Z,30.90
2018-08-09T11:58:51.802Z,30.90
2018-08-09T12:01:20.213Z,30.90
2018-08-09T12:03:48.636Z,30.90
2018-08-09T12:06:17.102Z,30.90
2018-08-09T12:08:45.546Z,30.90
2018-08-09T12:11:14.002Z,30.90
2018-08-09T12:13:42.440Z,30.90
2018-08-09T12:16:10.916Z,30.90
2018-08-09T12:18:39.367Z,30.90
2018-08-09T12:21:07.821Z,30.90
2018-08-09T12:23:36.227Z,30.90
2018-08-09T12:26:04.695Z,30.90
2018-08-09T12:28:33.139Z,30.80
2018-08-09T12:31:01.666Z,30.90
2018-08-09T12:33:30.099Z,30.90
2018-08-09T12:35:58.555Z,30.90
2018-08-09T12:38:27.064Z,30.90
2018-08-09T12:40:55.527Z,30.80
2018-08-09T12:43:24.024Z,30.80
2018-08-09T12:45:52.507Z,30.70
2018-08-09T12:48:20.948Z,30.50
2018-08-09T12:50:49.402Z,30.40
2018-08-09T12:53:17.850Z,30.40
2018-08-09T12:55:46.279Z,30.30
2018-08-09T12:58:14.722Z,30.10
2018-08-09T13:00:43.159Z,29.90
2018-08-09T13:03:11.620Z,29.60
2018-08-09T13:05:40.088Z,28.10
2018-08-09T13:08:08.611Z,26.60
2018-08-09T13:10:37.539Z,25.20
2018-08-09T13:13:06.015Z,24.20
2018-08-09T13:15:34.428Z,24.10
2018-08-09T13:18:02.931Z,24.20
2018-08-09T13:20:31.361Z,23.90
2018-08-09T13:22:59.796Z,23.70
2018-08-09T13:25:28.307Z,23.40
2018-08-09T13:27:56.726Z,23.00
2018-08-09T13:30:25.218Z,22.90
2018-08-09T13:32:53.663Z,22.50
2018-08-09T13:35:22.127Z,22.30
2018-08-09T13:37:50.555Z,22.30
2018-08-09T13:40:19.059Z,22.30
2018-08-09T13:42:47.495Z,22.20
2018-08-09T13:45:16.790Z,22.00
2018-08-09T13:47:45.219Z,21.90
2018-08-09T13:50:13.779Z,21.80
2018-08-09T13:52:42.621Z,21.80
2018-08-09T13:55:12.703Z,21.80
2018-08-09T13:57:41.134Z,21.80
2018-08-09T14:00:11.515Z,21.70
2018-08-09T14:02:40.623Z,21.70
2018-08-09T14:05:09.786Z,21.80
2018-08-09T14:07:39.270Z,21.90
2018-08-09T14:10:08.933Z,22.00
2018-08-09T14:12:37.418Z,22.10
2018-08-09T14:15:07.295Z,22.10
2018-08-09T14:17:36.067Z,22.00
2018-08-09T14:20:05.718Z,21.90
2018-08-09T14:22:34.135Z,21.90
2018-08-09T14:25:02.688Z,21.90
2018-08-09T14:27:31.314Z,21.90
2018-08-09T14:29:59.781Z,21.90
2018-08-09T14:32:28.195Z,21.90
2018-08-09T14:34:56.902Z,21.80
2018-08-09T14:37:25.401Z,21.70
2018-08-09T14:39:53.904Z,21.70
2018-08-09T14:42:22.431Z,21.70
2018-08-09T14:44:50.863Z,21.70
2018-08-09T14:47:19.587Z,21.80
2018-08-09T14:49:48.026Z,22.00
2018-08-09T14:52:16.480Z,22.10
2018-08-09T14:54:44.918Z,22.20
2018-08-09T14:57:13.351Z,22.20
2018-08-09T14:59:41.843Z,22.20
2018-08-09T15:02:10.272Z,22.30
2018-08-09T15:04:38.754Z,22.30
2018-08-09T15:07:07.254Z,22.20
2018-08-09T15:09:35.735Z,22.30
2018-08-09T15:12:04.423Z,22.30
2018-08-09T15:14:32.911Z,22.20
2018-08-09T15:17:01.367Z,22.20
2018-08-09T15:19:29.929Z,22.30
2018-08-09T15:22:01.228Z,22.30
2018-08-09T15:24:29.777Z,22.30
2018-08-09T15:26:58.204Z,22.30
2018-08-09T15:29:26.662Z,22.20
2018-08-09T15:31:55.154Z,22.10
2018-08-09T15:34:23.588Z,22.10
2018-08-09T15:36:52.043Z,22.10
2018-08-09T15:39:20.567Z,22.10
2018-08-09T15:41:49.015Z,22.10
2018-08-09T15:44:17.410Z,22.10
2018-08-09T15:46:45.810Z,21.90
2018-08-09T15:49:14.171Z,21.90
2018-08-09T15:51:42.554Z,22.00
2018-08-09T15:54:10.893Z,22.00
2018-08-09T15:56:39.284Z,22.00
2018-08-09T15:59:07.687Z,22.00
2018-08-09T16:01:36.059Z,22.10
2018-08-09T16:04:04.447Z,22.10
2018-08-09T16:06:32.822Z,22.00
2018-08-09T16:09:01.183Z,22.00
2018-08-09T16:11:29.771Z,22.10
2018-08-09T16:13:58.124Z,22.00
2018-08-09T16:16:26.572Z,22.00
2018-08-09T16:18:54.923Z,22.00
2018-08-09T16:21:24.204Z,22.00
2018-08-09T16:23:53.671Z,22.10
2018-08-09T16:26:22.056Z,22.00
2018-08-09T16:28:50.836Z,22.10
2018-08-09T16:31:19.763Z,22.10
2018-08-09T16:33:48.443Z,22.10
2018-08-09T16:36:16.828Z,22.20
2018-08-09T16:38:45.171Z,22.10
2018-08-09T16:41:13.823Z,22.10
2018-08-09T16:43:42.830Z,22.00
2018-08-09T16:46:12.191Z,22.00
2018-08-09T16:48:40.539Z,22.00
2018-08-09T16:51:08.934Z,22.10
2018-08-09T16:53:37.283Z,22.10
2018-08-09T16:56:06.086Z,22.20
2018-08-09T16:58:34.432Z,22.20
2018-08-09T17:01:02.791Z,22.20
2018-08-09T17:03:35.271Z,22.40
2018-08-09T17:06:03.799Z,22.30
2018-08-09T17:08:32.158Z,22.40
2018-08-09T17:11:00.547Z,22.40
2018-08-09T17:13:29.147Z,22.40
2018-08-09T17:15:57.809Z,22.40
2018-08-09T17:18:26.336Z,22.40
2018-08-09T17:20:54.779Z,22.50
2018-08-09T17:23:23.260Z,22.50
2018-08-09T17:25:51.647Z,22.50
2018-08-09T17:28:20.038Z,22.50
2018-08-09T17:30:48.457Z,22.50
2018-08-09T17:33:16.826Z,22.50
2018-08-09T17:35:45.231Z,22.40
2018-08-09T17:38:13.615Z,22.50
2018-08-09T17:40:41.971Z,22.40
2018-08-09T17:43:10.431Z,22.30
2018-08-09T17:45:38.924Z,22.40
2018-08-09T17:48:07.359Z,22.30
2018-08-09T17:50:35.844Z,22.30
2018-08-09T17:53:05.187Z,22.40
2018-08-09T17:55:33.874Z,22.40
2018-08-09T17:58:02.346Z,22.30
2018-08-09T18:00:32.239Z,22.40
2018-08-09T18:03:00.715Z,22.40
2018-08-09T18:05:29.162Z,22.50
2018-08-09T18:07:58.390Z,22.40
2018-08-09T18:10:29.163Z,22.40
2018-08-09T18:12:57.755Z,22.40
2018-08-09T18:15:27.369Z,22.40
2018-08-09T18:17:56.413Z,22.40
2018-08-09T18:20:26.847Z,22.50
2018-08-09T18:22:55.402Z,22.50
2018-08-09T18:25:23.838Z,22.50
2018-08-09T18:27:52.363Z,22.50
2018-08-09T18:30:21.141Z,22.50
2018-08-09T18:32:49.850Z,22.60
2018-08-09T18:35:19.219Z,22.60
2018-08-09T18:37:47.678Z,22.60
2018-08-09T18:40:20.082Z,22.70
2018-08-09T18:42:48.603Z,22.80
2018-08-09T18:45:17.342Z,22.80
2018-08-09T18:47:45.839Z,22.80
2018-08-09T18:50:16.906Z,22.80
2018-08-09T18:52:45.435Z,22.80
2018-08-09T18:55:14.748Z,22.70
2018-08-09T18:57:43.265Z,22.60
2018-08-09T19:00:14.271Z,22.40
2018-08-09T19:02:43.260Z,22.30
2018-08-09T19:05:11.793Z,22.20
2018-08-09T19:07:40.267Z,22.10
2018-08-09T19:10:10.834Z,22.00
2018-08-09T19:12:40.235Z,21.90
2018-08-09T19:15:10.205Z,21.80
2018-08-09T19:17:39.174Z,21.70
2018-08-09T19:20:14.558Z,21.50
2018-08-09T19:22:43.526Z,21.50
2018-08-09T19:25:12.163Z,21.30
2018-08-09T19:27:40.845Z,21.30
2018-08-09T19:30:10.062Z,21.20
2018-08-09T19:32:39.196Z,21.20
2018-08-09T19:35:11.134Z,21.20
2018-08-09T19:37:40.145Z,21.10
2018-08-09T19:40:09.827Z,21.10
2018-08-09T19:42:39.038Z,21.10
2018-08-09T19:45:15.590Z,21.10
2018-08-09T19:47:44.077Z,21.10
2018-08-09T19:50:14.767Z,21.10
2018-08-09T19:52:43.250Z,21.00
2018-08-09T19:55:16.015Z,21.00
2018-08-09T19:57:45.669Z,21.00
2018-08-09T20:00:16.110Z,20.90
2018-08-09T20:02:45.834Z,20.90
2018-08-09T20:05:14.355Z,20.80
2018-08-09T20:07:43.039Z,20.80
2018-08-09T20:10:12.475Z,20.80
2018-08-09T20:12:41.610Z,20.80
2018-08-09T20:15:13.859Z,20.70
2018-08-09T20:17:42.344Z,20.70
2018-08-09T20:20:12.328Z,20.60
2018-08-09T20:22:40.934Z,20.50
2018-08-09T20:25:10.468Z,20.50
2018-08-09T20:27:39.099Z,20.50
2018-08-09T20:30:11.168Z,20.40
2018-08-09T20:32:40.011Z,20.40
2018-08-09T20:35:12.383Z,20.30
2018-08-09T20:37:41.223Z,20.40
2018-08-09T20:40:10.523Z,20.30
2018-08-09T20:42:39.358Z,20.30
2018-08-09T20:45:09.683Z,20.20
2018-08-09T20:47:38.329Z,20.20
2018-08-09T20:50:09.293Z,20.10
2018-08-09T20:52:38.127Z,20.20
2018-08-09T20:55:07.223Z,20.20
2018-08-09T20:57:35.810Z,20.20
2018-08-09T21:00:05.875Z,20.20
2018-08-09T21:02:34.328Z,20.20
2018-08-09T21:05:02.740Z,20.10
2018-08-09T21:07:31.214Z,20.00
2018-08-09T21:09:59.627Z,19.90
2018-08-09T21:12:28.136Z,19.90
2018-08-09T21:14:56.590Z,19.80
2018-08-09T21:17:25.046Z,19.70
2018-08-09T21:19:53.630Z,19.60
2018-08-09T21:22:22.059Z,19.60
2018-08-09T21:24:50.496Z,19.60
2018-08-09T21:27:18.903Z,19.50
2018-08-09T21:29:47.386Z,19.40
2018-08-09T21:32:15.797Z,19.20
2018-08-09T21:34:44.242Z,19.10
2018-08-09T21:37:12.659Z,19.10
2018-08-09T21:39:41.161Z,18.90
2018-08-09T21:42:09.619Z,18.70
2018-08-09T21:44:38.059Z,18.50
2018-08-09T21:47:06.455Z,18.20
2018-08-09T21:49:34.925Z,18.10
2018-08-09T21:52:03.388Z,17.90
2018-08-09T21:54:31.835Z,17.80
2018-08-09T21:57:00.267Z,17.70
2018-08-09T21:59:28.738Z,17.80
2018-08-09T22:01:57.203Z,17.70
2018-08-09T22:04:25.643Z,17.70
2018-08-09T22:07:59.252Z,17.60
2018-08-09T22:10:33.223Z,17.60
2018-08-09T22:14:07.597Z,17.50
2018-08-09T22:16:41.459Z,17.50
2018-08-09T22:19:15.247Z,17.30
2018-08-09T22:21:49.047Z,17.40
2018-08-09T22:24:17.489Z,17.40
2018-08-09T22:26:45.898Z,17.40
2018-08-09T22:29:14.391Z,17.30
2018-08-09T22:31:43.443Z,17.30
2018-08-09T22:34:11.879Z,17.30
2018-08-09T22:36:40.303Z,17.30
2018-08-09T22:39:09.438Z,17.40
2018-08-09T22:41:37.907Z,17.40
2018-08-09T22:44:06.307Z,17.40
2018-08-09T22:46:34.663Z,17.50
2018-08-09T22:49:03.088Z,17.40
2018-08-09T22:51:31.459Z,17.40
2018-08-09T22:53:59.843Z,17.40
2018-08-09T22:56:28.203Z,17.40
2018-08-09T22:58:56.583Z,17.30
2018-08-09T23:01:25.067Z,17.40
2018-08-09T23:03:53.447Z,17.40
2018-08-09T23:06:22.094Z,17.40
2018-08-09T23:08:50.554Z,17.30
2018-08-09T23:11:18.996Z,17.20
2018-08-09T23:13:47.383Z,17.10
2018-08-09T23:16:15.770Z,17.10
2018-08-09T23:18:44.199Z,17.10
2018-08-09T23:21:12.550Z,17.10
2018-08-09T23:23:40.903Z,17.10
2018-08-09T23:26:09.274Z,17.20
2018-08-09T23:28:37.647Z,17.30
2018-08-09T23:31:06.036Z,17.20
2018-08-09T23:33:34.422Z,17.30
2018-08-09T23:36:02.786Z,17.30
2018-08-09T23:38:31.223Z,17.30
2018-08-09T23:41:00.168Z,17.30
2018-08-09T23:43:28.543Z,17.20
2018-08-09T23:45:56.999Z,17.20
2018-08-09T23:48:25.459Z,17.20
2018-08-09T23:50:53.895Z,17.10
2018-08-09T23:53:22.331Z,17.00
2018-08-09T23:55:50.795Z,17.00
2018-08-09T23:58:19.224Z,16.90
